Time;durP1;ratioP1;P1;durP2;ratioP2;P2;SDS_P1;SDS_P2;PMS_P1;PMS_P2;Temp;Humidity;BMP_temperature;BMP_pressure;BME280_temperature;BME280_humidity;BME280_pressure;Samples;Min_cycle;Max_cycle;Signal;HPM_P1;HPM_P2
2023/04/23 00:01:12;;;;;;;2.37;1.15;;;17.80;53.20;;;;;;2182658;58;21053;-70
2023/04/23 00:03:39;;;;;;;3.33;1.17;;;17.80;53.30;;;;;;2182564;58;21763;-68
2023/04/23 00:06:09;;;;;;;2.00;0.90;;;17.80;53.30;;;;;;2182485;59;21859;-70
2023/04/23 00:08:37;;;;;;;1.90;0.90;;;17.70;53.40;;;;;;2183946;58;21027;-70
2023/04/23 00:11:05;;;;;;;2.80;1.10;;;17.60;53.40;;;;;;2175353;57;21046;-71
2023/04/23 00:13:31;;;;;;;2.28;1.05;;;17.60;53.50;;;;;;2182159;58;21013;-70
2023/04/23 00:15:59;;;;;;;2.35;1.20;;;17.60;53.50;;;;;;2386340;57;21957;-69
2023/04/23 00:18:25;;;;;;;2.95;0.90;;;17.60;53.70;;;;;;2392139;57;21067;-68
2023/04/23 00:20:52;;;;;;;3.03;1.10;;;17.60;53.70;;;;;;2386118;57;20985;-70
2023/04/23 00:23:18;;;;;;;3.95;1.05;;;17.50;53.70;;;;;;2178521;57;21127;-68
2023/04/23 00:25:45;;;;;;;2.30;0.93;;;17.50;53.80;;;;;;2390097;57;21079;-68
2023/04/23 00:28:11;;;;;;;2.60;1.10;;;17.50;53.90;;;;;;2179037;58;20983;-69
2023/04/23 00:30:37;;;;;;;4.40;1.20;;;17.40;53.90;;;;;;2394437;57;21031;-70
2023/04/23 00:33:05;;;;;;;2.40;1.10;;;17.40;54.20;;;;;;2395018;57;21028;-70
2023/04/23 00:35:32;;;;;;;2.40;1.10;;;17.40;54.20;;;;;;2181879;58;20982;-71
2023/04/23 00:37:58;;;;;;;2.20;1.00;;;17.40;54.20;;;;;;2394830;57;21064;-68
2023/04/23 00:40:24;;;;;;;3.10;1.10;;;17.40;54.30;;;;;;2182456;58;20963;-72
2023/04/23 00:42:52;;;;;;;3.67;1.10;;;17.40;54.30;;;;;;2394324;57;21553;-71
2023/04/23 00:45:19;;;;;;;2.53;0.95;;;17.20;54.20;;;;;;2185843;59;21040;-68
2023/04/23 00:47:46;;;;;;;2.62;1.17;;;17.30;54.40;;;;;;2174478;57;21003;-69
2023/04/23 00:50:14;;;;;;;2.53;1.10;;;17.30;54.50;;;;;;2182609;58;20991;-69
2023/04/23 00:52:40;;;;;;;2.30;1.05;;;17.30;55.20;;;;;;2394658;57;20971;-68
2023/04/23 00:55:07;;;;;;;4.05;1.25;;;17.30;54.70;;;;;;2182781;58;21580;-68
2023/04/23 00:57:37;;;;;;;2.72;1.10;;;17.30;54.70;;;;;;2394494;57;20970;-69
2023/04/23 01:00:04;;;;;;;1.75;0.82;;;17.30;54.80;;;;;;2395289;57;21744;-70
2023/04/23 01:02:31;;;;;;;3.03;0.90;;;17.30;54.80;;;;;;2182805;58;21054;-71
2023/04/23 01:05:01;;;;;;;2.95;1.05;;;17.30;54.80;;;;;;2182385;58;21493;-71
2023/04/23 01:07:28;;;;;;;2.00;0.88;;;17.30;54.90;;;;;;2394784;57;20986;-70
2023/04/23 01:09:54;;;;;;;2.40;1.15;;;17.30;54.90;;;;;;2182527;58;21054;-71
2023/04/23 01:12:20;;;;;;;4.05;1.20;;;17.20;54.90;;;;;;2182680;58;21095;-69
2023/04/23 01:14:48;;;;;;;2.45;1.00;;;17.20;55.00;;;;;;2395585;57;20959;-68
2023/04/23 01:17:15;;;;;;;2.55;1.00;;;17.10;55.00;;;;;;2363892;58;20975;-69
2023/04/23 01:19:41;;;;;;;2.58;1.02;;;17.20;55.00;;;;;;2183127;58;20990;-69
2023/04/23 01:22:09;;;;;;;2.25;0.93;;;17.20;55.10;;;;;;2396257;57;21055;-69
2023/04/23 01:24:37;;;;;;;1.83;0.80;;;17.20;55.20;;;;;;2182904;58;21011;-69
2023/04/23 01:27:03;;;;;;;3.40;1.02;;;17.20;55.30;;;;;;2394867;57;21926;-69
2023/04/23 01:29:30;;;;;;;3.85;1.02;;;17.20;55.40;;;;;;2395313;57;20991;-70
2023/04/23 01:31:56;;;;;;;2.33;1.00;;;17.10;55.30;;;;;;2182896;58;21025;-69
2023/04/23 01:34:23;;;;;;;2.60;1.00;;;17.10;55.30;;;;;;2395253;57;20952;-70
2023/04/23 01:36:51;;;;;;;2.50;1.00;;;17.10;55.40;;;;;;2395625;57;20971;-69
2023/04/23 01:39:17;;;;;;;1.90;0.90;;;17.10;55.40;;;;;;2183306;58;21089;-69
2023/04/23 01:41:44;;;;;;;2.97;1.00;;;17.10;55.40;;;;;;2395159;57;21048;-71
2023/04/23 01:44:10;;;;;;;2.87;1.20;;;17.10;55.40;;;;;;2177717;57;21100;-70
2023/04/23 01:46:36;;;;;;;3.08;0.98;;;17.00;55.40;;;;;;2182927;58;21142;-70
2023/04/23 01:49:03;;;;;;;2.17;0.90;;;17.00;55.50;;;;;;2394989;57;21586;-72
2023/04/23 01:51:29;;;;;;;2.12;1.02;;;17.00;55.60;;;;;;2178520;57;21069;-69
2023/04/23 01:53:55;;;;;;;2.50;0.93;;;17.00;55.70;;;;;;2180989;57;22020;-69
2023/04/23 01:56:24;;;;;;;1.77;0.77;;;17.00;55.70;;;;;;2395171;57;21039;-69
2023/04/23 01:58:50;;;;;;;1.65;0.80;;;16.90;55.80;;;;;;2183763;58;21005;-69
2023/04/23 02:01:17;;;;;;;2.58;0.70;;;16.90;55.80;;;;;;2176313;57;21038;-70
2023/04/23 02:03:43;;;;;;;1.75;0.85;;;16.90;55.90;;;;;;2388538;57;20973;-69
2023/04/23 02:06:10;;;;;;;2.25;0.85;;;16.90;55.90;;;;;;2391829;57;21035;-69
2023/04/23 02:08:37;;;;;;;2.30;0.90;;;16.90;56.00;;;;;;2395372;57;21055;-69
2023/04/23 02:11:05;;;;;;;2.30;0.70;;;16.90;56.00;;;;;;2394941;57;21155;-70
2023/04/23 02:13:31;;;;;;;1.92;0.80;;;16.90;56.10;;;;;;2182352;58;20983;-67
2023/04/23 02:15:58;;;;;;;3.05;0.93;;;16.90;56.10;;;;;;2180399;58;21124;-70
2023/04/23 02:18:24;;;;;;;1.27;0.60;;;16.90;56.20;;;;;;2386374;57;21907;-69
2023/04/23 02:20:51;;;;;;;2.12;0.70;;;16.90;56.20;;;;;;2182514;58;20955;-69
2023/04/23 02:23:17;;;;;;;1.98;0.90;;;16.90;56.30;;;;;;2395438;57;20947;-70
2023/04/23 02:25:43;;;;;;;1.77;0.60;;;16.90;56.30;;;;;;2394770;57;20979;-73
2023/04/23 02:28:12;;;;;;;1.60;0.70;;;16.90;56.30;;;;;;2394320;57;21030;-68
2023/04/23 02:30:44;;;;;;;1.80;0.62;;;16.80;56.30;;;;;;2395002;57;20995;-69
2023/04/23 02:33:11;;;;;;;1.05;0.52;;;16.80;56.30;;;;;;2182409;58;21082;-72
2023/04/23 02:35:37;;;;;;;1.98;0.57;;;16.80;56.40;;;;;;2182514;58;21030;-67
2023/04/23 02:38:04;;;;;;;1.37;0.70;;;16.80;56.40;;;;;;2395268;57;21409;-71
2023/04/23 02:40:31;;;;;;;1.73;0.50;;;16.80;56.40;;;;;;2182833;58;20968;-71
2023/04/23 02:42:57;;;;;;;1.08;0.60;;;16.80;56.40;;;;;;2182290;58;21430;-69
2023/04/23 02:45:24;;;;;;;1.50;0.60;;;16.90;56.60;;;;;;2182927;58;21048;-69
2023/04/23 02:47:52;;;;;;;1.65;0.60;;;16.80;56.50;;;;;;2182530;58;21810;-69
2023/04/23 02:50:18;;;;;;;1.20;0.50;;;16.80;56.50;;;;;;2182834;58;21466;-70
2023/04/23 02:52:48;;;;;;;1.98;0.57;;;16.70;56.40;;;;;;2394862;57;21012;-70
2023/04/23 02:55:15;;;;;;;3.58;0.80;;;16.70;56.50;;;;;;2394815;57;21036;-70
2023/04/23 02:57:44;;;;;;;1.45;0.60;;;16.70;56.50;;;;;;2182519;58;21062;-68
2023/04/23 03:00:11;;;;;;;1.37;0.50;;;16.70;56.50;;;;;;2182620;58;20990;-70
2023/04/23 03:02:37;;;;;;;1.83;0.60;;;16.70;56.60;;;;;;2182921;58;21492;-69
2023/04/23 03:05:04;;;;;;;1.40;0.60;;;16.60;56.60;;;;;;2394802;57;21031;-72
2023/04/23 03:07:32;;;;;;;1.75;0.62;;;16.60;56.70;;;;;;2182209;58;21772;-68
2023/04/23 03:09:58;;;;;;;1.37;0.60;;;16.60;56.70;;;;;;2182343;58;21031;-70
2023/04/23 03:12:24;;;;;;;1.02;0.50;;;16.60;56.70;;;;;;2183113;58;20989;-71
2023/04/23 03:14:53;;;;;;;1.33;0.50;;;16.60;56.70;;;;;;2386959;57;20971;-70
2023/04/23 03:17:20;;;;;;;2.08;0.50;;;16.60;56.70;;;;;;2395506;57;21011;-70
2023/04/23 03:19:46;;;;;;;0.82;0.40;;;16.60;56.80;;;;;;2182623;58;21007;-70
2023/04/23 03:22:12;;;;;;;1.35;0.50;;;16.60;56.80;;;;;;2182380;58;20971;-72
2023/04/23 03:24:38;;;;;;;1.67;0.65;;;16.60;56.80;;;;;;2394789;57;20959;-70
2023/04/23 03:27:05;;;;;;;1.42;0.50;;;16.50;56.80;;;;;;2394496;57;21561;-72
2023/04/23 03:29:32;;;;;;;1.70;0.50;;;16.50;56.90;;;;;;2182133;58;20963;-68
2023/04/23 03:31:58;;;;;;;0.65;0.40;;;16.50;56.90;;;;;;2181788;58;21031;-69
2023/04/23 03:34:24;;;;;;;0.75;0.40;;;16.50;56.90;;;;;;2395059;57;20975;-69
2023/04/23 03:36:51;;;;;;;1.05;0.50;;;16.50;57.00;;;;;;2395032;57;21900;-68
2023/04/23 03:39:20;;;;;;;1.92;0.43;;;16.40;56.90;;;;;;2182190;58;21017;-69
2023/04/23 03:41:46;;;;;;;1.15;0.40;;;16.40;56.90;;;;;;2383574;57;20976;-71
2023/04/23 03:44:12;;;;;;;1.27;0.45;;;16.40;56.90;;;;;;2180741;57;21003;-69
2023/04/23 03:46:39;;;;;;;0.93;0.40;;;16.40;57.00;;;;;;2182702;58;21848;-69
2023/04/23 03:49:07;;;;;;;2.30;0.55;;;16.40;57.00;;;;;;2394922;57;20955;-69
2023/04/23 03:51:33;;;;;;;1.17;0.40;;;16.30;56.90;;;;;;2385970;57;21051;-70
2023/04/23 03:54:05;;;;;;;1.25;0.47;;;16.30;57.00;;;;;;2175679;57;21006;-68
2023/04/23 03:56:32;;;;;;;1.55;0.50;;;16.30;57.00;;;;;;2178219;57;21907;-69
2023/04/23 03:58:58;;;;;;;1.15;0.50;;;16.30;57.00;;;;;;2392739;57;21439;-70
2023/04/23 04:01:25;;;;;;;1.05;0.40;;;16.30;57.60;;;;;;2394256;57;21515;-68
2023/04/23 04:03:51;;;;;;;1.17;0.40;;;16.20;57.00;;;;;;2182473;58;20958;-69
2023/04/23 04:06:17;;;;;;;0.73;0.30;;;16.20;57.00;;;;;;2182957;58;21018;-72
2023/04/23 04:08:44;;;;;;;1.50;0.50;;;16.20;57.10;;;;;;2182328;58;20999;-72
2023/04/23 04:11:10;;;;;;;1.52;0.50;;;16.20;57.10;;;;;;2394717;57;21010;-70
2023/04/23 04:13:37;;;;;;;1.30;0.40;;;16.20;57.20;;;;;;2182551;57;21024;-72
2023/04/23 04:16:04;;;;;;;2.03;0.60;;;16.20;57.20;;;;;;2177365;57;20994;-72
2023/04/23 04:18:32;;;;;;;0.30;0.20;;;16.20;57.20;;;;;;2394904;57;21016;-68
2023/04/23 04:20:58;;;;;;;0.57;0.30;;;16.10;57.10;;;;;;2395086;57;20959;-69
2023/04/23 04:23:27;;;;;;;1.65;0.30;;;16.10;57.10;;;;;;2182534;58;21083;-68
2023/04/23 04:25:55;;;;;;;2.45;0.30;;;16.10;57.00;;;;;;2394966;57;21051;-69
2023/04/23 04:28:21;;;;;;;0.93;0.40;;;16.10;57.10;;;;;;2395178;57;20971;-69
2023/04/23 04:30:48;;;;;;;1.35;0.40;;;16.10;57.10;;;;;;2182703;58;21559;-69
2023/04/23 04:33:16;;;;;;;0.80;0.28;;;16.10;57.10;;;;;;2182644;58;21016;-69
2023/04/23 04:35:44;;;;;;;0.90;0.40;;;16.10;57.10;;;;;;2394847;57;20967;-72
2023/04/23 04:38:11;;;;;;;1.15;0.43;;;16.00;57.10;;;;;;2182881;58;21043;-70
2023/04/23 04:40:38;;;;;;;0.80;0.30;;;16.00;57.10;;;;;;2182495;58;21395;-70
2023/04/23 04:43:05;;;;;;;0.65;0.40;;;16.00;57.10;;;;;;2394660;57;21014;-72
2023/04/23 04:45:32;;;;;;;1.60;0.40;;;16.00;57.10;;;;;;2181870;58;21009;-70
2023/04/23 04:47:59;;;;;;;2.20;0.70;;;16.00;57.20;;;;;;2182081;58;21108;-70
2023/04/23 04:50:27;;;;;;;0.85;0.40;;;15.90;57.10;;;;;;2182266;58;20935;-70
2023/04/23 04:52:53;;;;;;;0.75;0.32;;;15.90;57.10;;;;;;2395017;57;21500;-70
2023/04/23 04:55:21;;;;;;;1.52;0.50;;;15.90;57.10;;;;;;2395423;57;21079;-69
2023/04/23 04:57:51;;;;;;;1.35;0.45;;;15.90;57.20;;;;;;2394479;57;20971;-69
2023/04/23 05:00:27;;;;;;;1.90;0.57;;;15.90;57.30;;;;;;2394967;57;20995;-69
2023/04/23 05:02:53;;;;;;;1.35;0.40;;;15.80;57.30;;;;;;2395093;57;20987;-69
2023/04/23 05:05:20;;;;;;;0.60;0.30;;;15.80;57.20;;;;;;2182907;58;20971;-68
2023/04/23 05:07:47;;;;;;;0.98;0.30;;;15.80;57.20;;;;;;2395045;57;21769;-73
2023/04/23 05:10:14;;;;;;;1.12;0.40;;;15.80;57.20;;;;;;2182587;57;20995;-69
2023/04/23 05:12:41;;;;;;;1.62;0.47;;;15.80;57.30;;;;;;2394172;57;21411;-69
2023/04/23 05:15:08;;;;;;;0.85;0.35;;;15.80;57.30;;;;;;2182342;58;22213;-68
2023/04/23 05:17:39;;;;;;;1.50;0.40;;;15.70;57.20;;;;;;2182456;58;20991;-69
2023/04/23 05:20:07;;;;;;;0.82;0.40;;;15.70;57.20;;;;;;2182233;58;21020;-69
2023/04/23 05:22:33;;;;;;;1.50;0.55;;;15.70;57.20;;;;;;2182615;58;20987;-69
2023/04/23 05:25:00;;;;;;;0.40;0.22;;;15.60;57.20;;;;;;2394211;57;21055;-72
2023/04/23 05:27:26;;;;;;;0.70;0.35;;;15.60;57.20;;;;;;2182551;58;21083;-68
2023/04/23 05:29:52;;;;;;;1.55;0.40;;;15.60;57.20;;;;;;2182824;58;20967;-71
2023/04/23 05:32:19;;;;;;;0.80;0.37;;;15.60;57.30;;;;;;2182319;58;21031;-71
2023/04/23 05:34:47;;;;;;;1.33;0.70;;;15.60;57.30;;;;;;2391608;57;21492;-69
2023/04/23 05:37:14;;;;;;;1.35;0.40;;;15.50;57.30;;;;;;2177236;57;20967;-68
2023/04/23 05:39:41;;;;;;;0.82;0.30;;;15.60;57.40;;;;;;2182840;58;21007;-69
2023/04/23 05:42:12;;;;;;;0.68;0.30;;;15.50;57.40;;;;;;2393121;57;21018;-69
2023/04/23 05:44:40;;;;;;;0.95;0.55;;;15.50;57.50;;;;;;2394311;57;21000;-70
2023/04/23 05:47:08;;;;;;;2.30;0.30;;;15.50;57.50;;;;;;2181614;58;22369;-68
2023/04/23 05:49:34;;;;;;;0.82;0.30;;;15.50;57.50;;;;;;2184553;58;20994;-69
2023/04/23 05:52:03;;;;;;;0.70;0.30;;;15.50;57.60;;;;;;2175851;57;21498;-69
2023/04/23 05:54:29;;;;;;;1.60;0.47;;;15.50;57.70;;;;;;2394528;57;21023;-70
2023/04/23 05:56:56;;;;;;;1.12;0.40;;;15.50;57.80;;;;;;2181713;58;21043;-68
2023/04/23 05:59:22;;;;;;;0.65;0.30;;;15.50;57.90;;;;;;2184091;58;20987;-69
2023/04/23 06:01:51;;;;;;;0.32;0.20;;;15.40;57.80;;;;;;2393737;57;21016;-69
2023/04/23 06:04:17;;;;;;;0.98;0.40;;;15.50;58.00;;;;;;2391075;57;21488;-70
2023/04/23 06:06:44;;;;;;;1.65;0.60;;;15.40;57.90;;;;;;2385941;57;21795;-69
2023/04/23 06:09:11;;;;;;;2.20;0.62;;;15.50;58.10;;;;;;2393542;57;20972;-69
2023/04/23 06:11:37;;;;;;;1.40;0.40;;;15.50;58.20;;;;;;2181580;58;21067;-72
2023/04/23 06:14:05;;;;;;;1.42;0.50;;;15.50;58.30;;;;;;2392922;57;21457;-70
2023/04/23 06:16:31;;;;;;;1.27;0.40;;;15.50;58.30;;;;;;2394105;57;20986;-69
2023/04/23 06:19:02;;;;;;;2.00;0.40;;;15.50;58.40;;;;;;2181920;58;20983;-70
2023/04/23 06:21:28;;;;;;;2.33;0.55;;;15.60;58.60;;;;;;2389609;57;21127;-68
2023/04/23 06:23:55;;;;;;;1.35;0.40;;;15.60;58.60;;;;;;2388017;57;20987;-70
2023/04/23 06:26:21;;;;;;;1.55;0.50;;;15.60;58.60;;;;;;2393545;57;20988;-71
2023/04/23 06:28:47;;;;;;;0.80;0.40;;;15.70;58.80;;;;;;2182488;58;21027;-72
2023/04/23 06:31:14;;;;;;;0.82;0.32;;;15.60;58.70;;;;;;2182695;58;21453;-70
2023/04/23 06:33:41;;;;;;;1.45;0.57;;;15.70;58.80;;;;;;2182285;58;21027;-70
2023/04/23 06:36:10;;;;;;;1.45;0.45;;;15.70;58.80;;;;;;2393925;57;20967;-69
2023/04/23 06:38:37;;;;;;;2.03;0.52;;;15.70;58.90;;;;;;2181986;58;20943;-73
2023/04/23 06:41:03;;;;;;;0.90;0.40;;;15.80;59.00;;;;;;2180688;58;20975;-69
2023/04/23 06:43:30;;;;;;;1.15;0.45;;;15.80;59.10;;;;;;2181404;57;21013;-71
2023/04/23 06:45:56;;;;;;;1.02;0.50;;;15.80;59.10;;;;;;2388693;57;20991;-70
2023/04/23 06:48:24;;;;;;;1.30;0.50;;;15.90;59.20;;;;;;2182041;58;21374;-70
2023/04/23 06:50:51;;;;;;;2.28;0.50;;;15.90;59.20;;;;;;2183329;57;21015;-69
2023/04/23 06:53:17;;;;;;;1.00;0.47;;;16.00;59.30;;;;;;2175061;57;21039;-72
2023/04/23 06:55:44;;;;;;;1.75;0.60;;;16.00;59.40;;;;;;2394015;57;20983;-69
2023/04/23 06:58:11;;;;;;;1.60;0.50;;;16.10;59.70;;;;;;2181859;58;21106;-70
2023/04/23 07:00:38;;;;;;;1.30;0.60;;;16.10;59.80;;;;;;2184947;58;21508;-71
2023/04/23 07:03:04;;;;;;;1.50;0.47;;;16.20;60.10;;;;;;2174819;57;20988;-69
2023/04/23 07:05:31;;;;;;;1.37;0.60;;;16.30;60.40;;;;;;2179618;57;21404;-70
2023/04/23 07:07:57;;;;;;;1.30;0.62;;;16.40;60.80;;;;;;2393877;57;20979;-75
2023/04/23 07:10:24;;;;;;;1.42;0.60;;;16.50;61.10;;;;;;2179138;57;21048;-68
2023/04/23 07:12:51;;;;;;;1.62;0.65;;;16.60;61.30;;;;;;2178916;57;21035;-70
2023/04/23 07:15:19;;;;;;;1.58;0.62;;;16.70;61.50;;;;;;2393849;57;20976;-72
2023/04/23 07:17:46;;;;;;;1.73;0.62;;;16.90;61.80;;;;;;2394366;57;20955;-68
2023/04/23 07:20:13;;;;;;;1.65;0.65;;;17.00;61.90;;;;;;2181579;58;20951;-73
2023/04/23 07:22:39;;;;;;;1.25;0.60;;;17.20;62.00;;;;;;2393902;57;20971;-71
2023/04/23 07:25:10;;;;;;;1.33;0.55;;;17.40;62.00;;;;;;2393651;57;21014;-70
2023/04/23 07:27:37;;;;;;;2.47;0.70;;;17.50;62.00;;;;;;2393968;57;21047;-71
2023/04/23 07:30:04;;;;;;;2.08;0.95;;;17.70;62.10;;;;;;2181643;58;21047;-71
2023/04/23 07:32:31;;;;;;;1.60;0.60;;;17.90;62.20;;;;;;2182175;58;20963;-71
2023/04/23 07:34:58;;;;;;;1.73;0.70;;;18.10;62.30;;;;;;2393636;57;20995;-69
2023/04/23 07:37:26;;;;;;;1.25;0.60;;;18.30;62.40;;;;;;2394181;57;20982;-70
2023/04/23 07:39:52;;;;;;;0.98;0.52;;;18.40;62.20;;;;;;2181942;58;21171;-72
2023/04/23 07:42:19;;;;;;;1.55;0.60;;;18.70;62.20;;;;;;2181418;58;21019;-71
2023/04/23 07:44:46;;;;;;;1.52;0.70;;;18.80;61.90;;;;;;2181864;58;20998;-74
2023/04/23 07:47:13;;;;;;;1.62;0.60;;;18.90;61.60;;;;;;2393613;57;21487;-72
2023/04/23 07:49:42;;;;;;;1.85;0.73;;;19.10;61.10;;;;;;2182242;58;20983;-71
2023/04/23 07:52:11;;;;;;;3.40;0.80;;;19.30;60.80;;;;;;2181809;58;21846;-71
2023/04/23 07:54:37;;;;;;;2.03;0.70;;;19.40;60.40;;;;;;2185156;58;20979;-73
2023/04/23 07:57:04;;;;;;;1.10;0.60;;;19.50;59.80;;;;;;2383471;57;21852;-72
2023/04/23 07:59:31;;;;;;;1.12;0.60;;;19.60;59.50;;;;;;2182064;58;20986;-73
2023/04/23 08:02:01;;;;;;;1.55;0.65;;;19.70;59.30;;;;;;2394238;57;21029;-70
2023/04/23 08:04:27;;;;;;;1.52;0.60;;;19.80;59.20;;;;;;2183316;58;20928;-70
2023/04/23 08:06:54;;;;;;;1.62;0.77;;;19.90;59.10;;;;;;2181749;58;20978;-71
2023/04/23 08:09:20;;;;;;;1.10;0.60;;;20.00;58.90;;;;;;2387707;57;21032;-71
2023/04/23 08:11:50;;;;;;;3.25;0.90;;;20.00;58.50;;;;;;2178594;58;21084;-70
2023/04/23 08:14:18;;;;;;;1.80;0.80;;;20.10;58.20;;;;;;2180085;57;21118;-71
2023/04/23 08:16:45;;;;;;;1.27;0.68;;;20.10;58.30;;;;;;2385549;57;21040;-71
2023/04/23 08:19:11;;;;;;;1.87;0.70;;;20.20;58.50;;;;;;2182081;58;21952;-71
2023/04/23 08:21:37;;;;;;;2.55;0.70;;;20.30;58.30;;;;;;2181909;58;20987;-73
2023/04/23 08:24:06;;;;;;;2.03;0.80;;;20.40;58.30;;;;;;2394239;57;21024;-71
2023/04/23 08:26:33;;;;;;;3.78;0.70;;;20.40;58.20;;;;;;2182241;58;21946;-72
2023/04/23 08:29:03;;;;;;;1.83;0.60;;;20.50;58.10;;;;;;2394236;57;21024;-73
2023/04/23 08:31:29;;;;;;;1.58;0.70;;;20.60;58.00;;;;;;2394554;57;21035;-69
2023/04/23 08:33:56;;;;;;;1.77;0.70;;;20.70;58.00;;;;;;2394206;57;21062;-76
2023/04/23 08:36:22;;;;;;;1.70;0.70;;;20.80;58.00;;;;;;2389089;57;21893;-73
2023/04/23 08:38:51;;;;;;;2.42;0.50;;;20.80;57.50;;;;;;2388788;57;21273;-74
2023/04/23 08:41:18;;;;;;;1.27;0.55;;;21.00;57.40;;;;;;2394325;57;21432;-73
2023/04/23 08:43:46;;;;;;;2.33;0.80;;;21.00;57.20;;;;;;2395191;57;20987;-71
2023/04/23 08:46:14;;;;;;;1.73;0.60;;;21.10;56.80;;;;;;2394495;57;20978;-71
2023/04/23 08:48:41;;;;;;;1.70;0.60;;;21.10;56.80;;;;;;2185528;58;20951;-71
2023/04/23 08:51:09;;;;;;;1.62;0.65;;;21.20;56.80;;;;;;2173341;57;21019;-70
2023/04/23 08:53:35;;;;;;;2.70;0.80;;;21.30;56.60;;;;;;2182482;58;20975;-70
2023/04/23 08:56:01;;;;;;;2.00;0.80;;;21.30;56.30;;;;;;2393794;57;20944;-70
2023/04/23 08:58:27;;;;;;;2.03;0.70;;;21.40;56.10;;;;;;2394983;57;21050;-73
2023/04/23 09:00:57;;;;;;;1.90;0.60;;;21.40;55.60;;;;;;2395207;57;21071;-73
2023/04/23 09:03:24;;;;;;;1.85;0.70;;;21.50;55.30;;;;;;2394848;57;21003;-70
2023/04/23 09:05:54;;;;;;;1.77;0.80;;;21.50;55.10;;;;;;2395005;57;20984;-72
2023/04/23 09:08:23;;;;;;;1.25;0.70;;;21.60;54.80;;;;;;2394179;57;20998;-72
2023/04/23 09:10:49;;;;;;;1.60;0.60;;;21.60;54.70;;;;;;2182572;58;21086;-71
2023/04/23 09:13:15;;;;;;;1.27;0.60;;;21.60;54.00;;;;;;2394384;57;21003;-72
2023/04/23 09:15:44;;;;;;;2.20;0.80;;;21.60;53.90;;;;;;2387365;57;21224;-71
2023/04/23 09:18:11;;;;;;;2.47;1.12;;;21.60;54.00;;;;;;2181417;58;20979;-70
2023/04/23 09:20:38;;;;;;;2.17;0.90;;;21.60;53.90;;;;;;2182494;58;20971;-74
2023/04/23 09:23:08;;;;;;;1.58;0.80;;;21.60;53.90;;;;;;2394493;57;21396;-71
2023/04/23 09:25:34;;;;;;;2.87;1.20;;;21.70;54.00;;;;;;2394199;57;21035;-73
2023/04/23 09:28:01;;;;;;;2.22;0.88;;;21.70;54.10;;;;;;2181513;58;21863;-71
2023/04/23 09:30:28;;;;;;;2.72;1.15;;;21.70;53.90;;;;;;2394119;57;20991;-71
2023/04/23 09:32:54;;;;;;;2.35;1.00;;;21.80;53.80;;;;;;2182119;58;21031;-71
2023/04/23 09:35:21;;;;;;;2.47;0.93;;;21.80;53.50;;;;;;2378575;57;21650;-73
2023/04/23 09:37:48;;;;;;;1.15;0.65;;;21.80;53.40;;;;;;2390546;57;21019;-72
2023/04/23 09:40:16;;;;;;;1.77;0.80;;;21.90;53.50;;;;;;2393821;57;20975;-69
2023/04/23 09:42:47;;;;;;;2.55;1.00;;;21.90;53.30;;;;;;2394594;57;20955;-71
2023/04/23 09:45:15;;;;;;;3.55;0.90;;;21.90;53.10;;;;;;2383128;57;21006;-72
2023/04/23 09:47:55;;;;;;;1.80;0.70;;;22.00;53.40;;;;;;2383980;57;21121;-72
2023/04/23 09:50:31;;;;;;;1.70;0.60;;;22.00;53.00;;;;;;2182420;58;22180;-71
2023/04/23 09:52:58;;;;;;;1.77;0.80;;;22.10;53.00;;;;;;2182462;58;21054;-71
2023/04/23 09:55:37;;;;;;;1.50;0.70;;;22.20;53.20;;;;;;2393662;57;21548;-71
2023/04/23 09:58:04;;;;;;;1.55;0.60;;;22.20;52.60;;;;;;2394233;57;21054;-71
2023/04/23 10:00:35;;;;;;;2.28;1.00;;;22.20;53.00;;;;;;2183538;58;20983;-70
2023/04/23 10:03:01;;;;;;;2.20;0.93;;;22.30;52.70;;;;;;2190360;57;1606474;-70
2023/04/23 10:05:29;;;;;;;1.15;0.60;;;22.30;52.80;;;;;;2180544;57;21036;-70
2023/04/23 10:08:00;;;;;;;1.65;0.70;;;22.40;52.60;;;;;;2383950;56;21466;-73
2023/04/23 10:10:26;;;;;;;1.60;0.70;;;22.40;52.70;;;;;;2392698;57;21830;-72
2023/04/23 10:12:53;;;;;;;1.83;0.80;;;22.50;52.80;;;;;;2393999;57;21102;-70
2023/04/23 10:15:20;;;;;;;2.33;0.70;;;22.50;52.60;;;;;;2393200;57;20994;-71
2023/04/23 10:17:48;;;;;;;1.95;0.70;;;22.50;52.30;;;;;;2182247;58;20975;-71
2023/04/23 10:20:15;;;;;;;2.10;0.70;;;22.50;52.20;;;;;;2393620;57;20975;-72
2023/04/23 10:22:43;;;;;;;1.83;0.82;;;22.60;52.10;;;;;;2182611;58;21060;-75
2023/04/23 10:25:10;;;;;;;1.70;0.60;;;22.60;51.90;;;;;;2181817;57;21892;-72
2023/04/23 10:27:38;;;;;;;1.55;0.65;;;22.60;51.70;;;;;;2181721;58;21400;-73
2023/04/23 10:30:14;;;;;;;1.42;0.60;;;22.70;51.60;;;;;;2393807;57;21813;-71
2023/04/23 10:32:41;;;;;;;1.45;0.60;;;22.70;51.80;;;;;;2182514;58;21074;-70
2023/04/23 10:35:08;;;;;;;1.10;0.40;;;22.70;51.80;;;;;;2181405;57;20996;-70
2023/04/23 10:37:35;;;;;;;1.02;0.40;;;22.80;51.80;;;;;;2393800;57;21024;-72
2023/04/23 10:40:13;;;;;;;0.85;0.50;;;22.80;51.90;;;;;;2393860;57;20987;-70
2023/04/23 10:42:42;;;;;;;0.93;0.40;;;22.90;51.20;;;;;;2394304;57;21825;-71
2023/04/23 10:45:16;;;;;;;1.10;0.50;;;22.90;51.80;;;;;;2181550;58;21618;-70
2023/04/23 10:47:48;;;;;;;0.37;0.30;;;23.10;51.80;;;;;;2363896;57;21031;-69
2023/04/23 10:50:25;;;;;;;0.93;0.43;;;23.10;51.70;;;;;;2393802;57;20991;-68
2023/04/23 10:52:53;;;;;;;2.90;0.57;;;23.30;51.00;;;;;;2392492;57;21009;-70
2023/04/23 10:55:37;;;;;;;0.90;0.40;;;23.30;51.40;;;;;;2386364;57;21471;-70
2023/04/23 10:58:04;;;;;;;0.43;0.30;;;23.40;50.60;;;;;;2394273;57;21197;-70
2023/04/23 11:00:45;;;;;;;0.77;0.30;;;23.50;51.40;;;;;;2394474;57;20971;-71
2023/04/23 11:03:46;;;;;;;0.82;0.40;;;23.60;50.60;;;;;;2385142;57;21223;-70
2023/04/23 11:06:16;;;;;;;1.20;0.40;;;23.60;50.30;;;;;;2391063;57;20955;-71
2023/04/23 11:08:55;;;;;;;1.10;0.40;;;23.70;51.30;;;;;;2182584;58;21109;-70
2023/04/23 11:11:40;;;;;;;0.80;0.30;;;23.80;50.70;;;;;;2393774;57;21002;-72
2023/04/23 11:14:14;;;;;;;0.80;0.30;;;23.90;50.70;;;;;;2181789;57;21023;-71
2023/04/23 11:16:41;;;;;;;1.55;0.50;;;23.90;50.50;;;;;;2394755;57;20963;-73
2023/04/23 11:19:14;;;;;;;1.02;0.40;;;24.00;50.70;;;;;;2394019;57;21042;-74
2023/04/23 11:22:00;;;;;;;1.42;0.32;;;24.00;50.70;;;;;;2182380;58;21074;-73
2023/04/23 11:24:31;;;;;;;0.85;0.37;;;24.10;50.20;;;;;;2394075;57;21022;-70
2023/04/23 11:27:00;;;;;;;0.82;0.40;;;24.20;50.80;;;;;;2394667;57;21822;-70
2023/04/23 11:29:29;;;;;;;0.75;0.30;;;24.20;51.00;;;;;;2393937;57;21002;-70
2023/04/23 11:31:55;;;;;;;1.02;0.30;;;24.30;50.40;;;;;;2182018;58;20971;-70
2023/04/23 11:34:25;;;;;;;0.55;0.30;;;24.40;50.30;;;;;;2181087;58;20963;-71
2023/04/23 11:36:52;;;;;;;0.88;0.37;;;24.30;50.30;;;;;;2394603;57;20962;-71
2023/04/23 11:39:20;;;;;;;1.17;0.40;;;24.40;50.20;;;;;;2181879;58;20971;-71
2023/04/23 11:41:46;;;;;;;0.85;0.40;;;24.60;50.00;;;;;;2182117;58;21131;-71
2023/04/23 11:44:12;;;;;;;0.90;0.30;;;24.60;49.80;;;;;;2183446;58;21018;-71
2023/04/23 11:46:39;;;;;;;1.20;0.50;;;24.70;49.90;;;;;;2384940;57;20961;-70
2023/04/23 11:49:08;;;;;;;1.65;0.45;;;24.80;50.00;;;;;;2182343;58;21031;-75
2023/04/23 11:51:35;;;;;;;0.90;0.37;;;24.80;49.70;;;;;;2394189;57;21027;-70
2023/04/23 11:54:02;;;;;;;1.27;0.40;;;24.90;49.60;;;;;;2394213;57;21849;-71
2023/04/23 11:56:32;;;;;;;0.95;0.40;;;25.00;49.40;;;;;;2181556;58;20978;-71
2023/04/23 11:59:02;;;;;;;1.30;0.40;;;25.00;49.20;;;;;;2181656;59;21508;-72
2023/04/23 12:03:24;;;;;;;1.27;0.50;;;25.00;49.30;;;;;;2393874;57;21043;-70
2023/04/23 12:05:54;;;;;;;1.17;0.47;;;25.10;48.70;;;;;;2395146;57;20987;-69
2023/04/23 12:08:21;;;;;;;1.20;0.52;;;25.20;49.00;;;;;;2393640;57;21963;-73
2023/04/23 12:10:52;;;;;;;1.27;0.50;;;25.20;48.30;;;;;;2394697;57;20956;-71
2023/04/23 12:13:27;;;;;;;0.90;0.40;;;25.20;48.20;;;;;;2180677;58;20979;-69
2023/04/23 12:15:57;;;;;;;2.12;0.50;;;25.20;47.60;;;;;;2395174;57;21028;-68
2023/04/23 12:21:07;;;;;;;1.95;0.60;;;25.20;48.10;;;;;;2388327;57;21640;-69
2023/04/23 12:23:35;;;;;;;1.50;0.60;;;25.40;47.70;;;;;;2392254;57;21063;-69
2023/04/23 12:26:04;;;;;;;0.90;0.40;;;25.30;48.10;;;;;;2181749;58;20991;-69
2023/04/23 12:28:31;;;;;;;3.03;1.08;;;25.40;47.80;;;;;;2181936;57;21037;-72
2023/04/23 12:31:00;;;;;;;1.83;0.70;;;25.40;47.50;;;;;;2387856;57;21532;-70
2023/04/23 12:33:29;;;;;;;1.92;0.70;;;25.40;46.80;;;;;;2384146;57;21937;-69
2023/04/23 12:35:56;;;;;;;2.65;0.60;;;25.50;47.10;;;;;;2393956;57;20987;-68
2023/04/23 12:38:34;;;;;;;4.22;1.50;;;25.40;47.30;;;;;;2393871;57;21011;-71
2023/04/23 12:41:00;;;;;;;2.28;0.80;;;25.50;46.70;;;;;;2182954;58;20967;-72
2023/04/23 12:43:27;;;;;;;1.95;0.80;;;25.50;47.20;;;;;;2185282;58;21142;-73
2023/04/23 12:45:55;;;;;;;2.47;0.80;;;25.50;46.70;;;;;;2174245;57;21028;-68
2023/04/23 12:48:25;;;;;;;1.83;0.60;;;25.50;46.30;;;;;;2181721;58;21476;-69
2023/04/23 12:50:54;;;;;;;2.05;0.70;;;25.50;46.30;;;;;;2184179;57;21010;-67
2023/04/23 12:53:23;;;;;;;3.05;0.70;;;25.50;46.20;;;;;;2182978;58;20985;-69
2023/04/23 12:55:50;;;;;;;1.50;0.80;;;25.50;46.30;;;;;;2175588;57;20975;-72